sensor_id;sensor_type;location;lat;lon;timestamp;pressure;altitude;pressure_sealevel;temperature;humidity
49393;BME280;35268;42.642;23.308;2024-02-04T00:01:41;94318.88;;;6.89;62.20
49393;BME280;35268;42.642;23.308;2024-02-04T00:04:07;94310.66;;;6.90;62.22
49393;BME280;35268;42.642;23.308;2024-02-04T00:06:32;94312.22;;;6.91;62.03
49393;BME280;35268;42.642;23.308;2024-02-04T00:08:58;94314.34;;;6.89;62.37
49393;BME280;35268;42.642;23.308;2024-02-04T00:11:23;94310.06;;;6.93;62.17
49393;BME280;35268;42.642;23.308;2024-02-04T00:13:49;94317.28;;;6.88;62.32
49393;BME280;35268;42.642;23.308;2024-02-04T00:16:14;94306.47;;;6.84;62.28
49393;BME280;35268;42.642;23.308;2024-02-04T00:18:40;94307.00;;;6.81;62.58
49393;BME280;35268;42.642;23.308;2024-02-04T00:21:05;94306.22;;;6.80;62.43
49393;BME280;35268;42.642;23.308;2024-02-04T00:23:30;94318.94;;;6.78;62.62
49393;BME280;35268;42.642;23.308;2024-02-04T00:25:56;94303.84;;;6.79;62.03
49393;BME280;35268;42.642;23.308;2024-02-04T00:28:22;94307.56;;;6.78;62.32
49393;BME280;35268;42.642;23.308;2024-02-04T00:30:47;94295.47;;;6.67;63.11
49393;BME280;35268;42.642;23.308;2024-02-04T00:33:15;94290.16;;;6.67;63.39
49393;BME280;35268;42.642;23.308;2024-02-04T00:35:41;94303.91;;;6.69;63.81
49393;BME280;35268;42.642;23.308;2024-02-04T00:38:07;94297.31;;;6.66;64.29
49393;BME280;35268;42.642;23.308;2024-02-04T00:40:33;94293.84;;;6.71;64.62
49393;BME280;35268;42.642;23.308;2024-02-04T00:42:59;94291.94;;;6.76;65.04
49393;BME280;35268;42.642;23.308;2024-02-04T00:45:25;94301.75;;;6.76;64.65
49393;BME280;35268;42.642;23.308;2024-02-04T00:47:51;94306.50;;;6.79;64.97
49393;BME280;35268;42.642;23.308;2024-02-04T00:50:16;94281.84;;;6.78;65.11
49393;BME280;35268;42.642;23.308;2024-02-04T00:52:41;94289.22;;;6.81;65.08
49393;BME280;35268;42.642;23.308;2024-02-04T00:55:07;94293.72;;;6.86;65.04
49393;BME280;35268;42.642;23.308;2024-02-04T00:57:33;94308.03;;;6.85;65.48
49393;BME280;35268;42.642;23.308;2024-02-04T00:59:58;94276.75;;;6.87;65.57
49393;BME280;35268;42.642;23.308;2024-02-04T01:02:23;94277.00;;;6.86;65.95
49393;BME280;35268;42.642;23.308;2024-02-04T01:04:49;94284.94;;;6.91;66.07
49393;BME280;35268;42.642;23.308;2024-02-04T01:07:15;94281.19;;;6.92;66.12
49393;BME280;35268;42.642;23.308;2024-02-04T01:09:41;94272.44;;;6.96;66.59
49393;BME280;35268;42.642;23.308;2024-02-04T01:12:07;94283.53;;;6.98;66.19
49393;BME280;35268;42.642;23.308;2024-02-04T01:14:33;94283.56;;;6.93;66.33
49393;BME280;35268;42.642;23.308;2024-02-04T01:16:58;94288.78;;;7.03;66.32
49393;BME280;35268;42.642;23.308;2024-02-04T01:19:23;94273.34;;;7.11;66.35
49393;BME280;35268;42.642;23.308;2024-02-04T01:21:49;94303.06;;;7.08;66.75
49393;BME280;35268;42.642;23.308;2024-02-04T01:24:14;94283.13;;;7.10;66.72
49393;BME280;35268;42.642;23.308;2024-02-04T01:26:40;94280.22;;;7.12;66.57
49393;BME280;35268;42.642;23.308;2024-02-04T01:29:05;94259.34;;;7.05;66.75
49393;BME280;35268;42.642;23.308;2024-02-04T01:31:31;94271.22;;;7.13;66.69
49393;BME280;35268;42.642;23.308;2024-02-04T01:33:56;94295.34;;;7.11;66.57
49393;BME280;35268;42.642;23.308;2024-02-04T01:36:21;94264.81;;;7.14;66.67
49393;BME280;35268;42.642;23.308;2024-02-04T01:38:47;94266.94;;;7.17;66.91
49393;BME280;35268;42.642;23.308;2024-02-04T01:41:12;94265.28;;;7.21;66.65
49393;BME280;35268;42.642;23.308;2024-02-04T01:43:38;94254.91;;;7.25;66.37
49393;BME280;35268;42.642;23.308;2024-02-04T01:46:03;94249.09;;;7.22;66.13
49393;BME280;35268;42.642;23.308;2024-02-04T01:48:29;94266.31;;;7.25;65.93
49393;BME280;35268;42.642;23.308;2024-02-04T01:50:58;94246.16;;;7.24;66.00
49393;BME280;35268;42.642;23.308;2024-02-04T01:53:26;94261.50;;;7.27;65.87
49393;BME280;35268;42.642;23.308;2024-02-04T01:55:52;94251.91;;;7.31;66.28
49393;BME280;35268;42.642;23.308;2024-02-04T01:58:20;94252.97;;;7.30;66.21
49393;BME280;35268;42.642;23.308;2024-02-04T02:00:46;94290.59;;;7.32;66.30
49393;BME280;35268;42.642;23.308;2024-02-04T02:03:12;94272.34;;;7.31;66.25
49393;BME280;35268;42.642;23.308;2024-02-04T02:05:39;94245.88;;;7.26;66.33
49393;BME280;35268;42.642;23.308;2024-02-04T02:08:05;94245.59;;;7.27;66.46
49393;BME280;35268;42.642;23.308;2024-02-04T02:10:31;94251.91;;;7.31;66.02
49393;BME280;35268;42.642;23.308;2024-02-04T02:13:11;94260.72;;;7.27;65.97
49393;BME280;35268;42.642;23.308;2024-02-04T02:15:45;94246.66;;;7.26;65.87
49393;BME280;35268;42.642;23.308;2024-02-04T02:18:20;94243.47;;;7.29;65.79
49393;BME280;35268;42.642;23.308;2024-02-04T02:23:30;94230.94;;;7.35;65.39
49393;BME280;35268;42.642;23.308;2024-02-04T02:25:57;94249.44;;;7.40;64.97
49393;BME280;35268;42.642;23.308;2024-02-04T02:28:23;94239.31;;;7.42;64.76
49393;BME280;35268;42.642;23.308;2024-02-04T02:30:49;94240.56;;;7.50;64.62
49393;BME280;35268;42.642;23.308;2024-02-04T02:33:14;94235.66;;;7.38;64.23
49393;BME280;35268;42.642;23.308;2024-02-04T02:35:40;94250.72;;;7.42;64.24
49393;BME280;35268;42.642;23.308;2024-02-04T02:40:43;94254.38;;;7.47;63.85
49393;BME280;35268;42.642;23.308;2024-02-04T02:43:11;94245.38;;;7.48;64.03
49393;BME280;35268;42.642;23.308;2024-02-04T02:45:40;94236.31;;;7.49;64.29
49393;BME280;35268;42.642;23.308;2024-02-04T02:48:06;94255.91;;;7.53;64.33
49393;BME280;35268;42.642;23.308;2024-02-04T02:50:34;94230.69;;;7.55;63.69
49393;BME280;35268;42.642;23.308;2024-02-04T02:52:59;94224.44;;;7.65;63.33
49393;BME280;35268;42.642;23.308;2024-02-04T02:55:25;94221.25;;;7.68;63.22
49393;BME280;35268;42.642;23.308;2024-02-04T02:57:50;94227.59;;;7.67;62.95
49393;BME280;35268;42.642;23.308;2024-02-04T03:00:16;94238.44;;;7.71;63.36
49393;BME280;35268;42.642;23.308;2024-02-04T03:02:41;94219.81;;;7.76;63.14
49393;BME280;35268;42.642;23.308;2024-02-04T03:05:07;94223.16;;;7.81;62.90
49393;BME280;35268;42.642;23.308;2024-02-04T03:07:33;94205.69;;;7.80;62.75
49393;BME280;35268;42.642;23.308;2024-02-04T03:09:58;94220.97;;;7.89;62.93
49393;BME280;35268;42.642;23.308;2024-02-04T03:12:24;94233.38;;;7.93;62.85
49393;BME280;35268;42.642;23.308;2024-02-04T03:14:49;94238.38;;;7.95;62.61
49393;BME280;35268;42.642;23.308;2024-02-04T03:17:15;94234.69;;;7.96;63.33
49393;BME280;35268;42.642;23.308;2024-02-04T03:19:40;94212.44;;;7.92;63.45
49393;BME280;35268;42.642;23.308;2024-02-04T03:22:06;94210.47;;;7.97;63.47
49393;BME280;35268;42.642;23.308;2024-02-04T03:24:31;94199.09;;;7.97;63.16
49393;BME280;35268;42.642;23.308;2024-02-04T03:26:57;94225.06;;;8.00;63.31
49393;BME280;35268;42.642;23.308;2024-02-04T03:29:22;94204.38;;;7.97;63.76
49393;BME280;35268;42.642;23.308;2024-02-04T03:31:48;94220.09;;;7.93;63.74
49393;BME280;35268;42.642;23.308;2024-02-04T03:34:13;94223.47;;;7.99;63.56
49393;BME280;35268;42.642;23.308;2024-02-04T03:36:39;94199.66;;;7.94;63.66
49393;BME280;35268;42.642;23.308;2024-02-04T03:39:04;94204.09;;;7.98;64.03
49393;BME280;35268;42.642;23.308;2024-02-04T03:41:30;94185.31;;;7.95;64.16
49393;BME280;35268;42.642;23.308;2024-02-04T03:43:55;94207.75;;;8.02;64.28
49393;BME280;35268;42.642;23.308;2024-02-04T03:46:21;94183.50;;;8.09;64.20
49393;BME280;35268;42.642;23.308;2024-02-04T03:48:46;94154.50;;;8.13;64.75
49393;BME280;35268;42.642;23.308;2024-02-04T03:51:16;94166.34;;;8.20;64.70
49393;BME280;35268;42.642;23.308;2024-02-04T03:53:42;94181.63;;;8.10;63.47
49393;BME280;35268;42.642;23.308;2024-02-04T03:56:08;94192.13;;;8.01;63.48
49393;BME280;35268;42.642;23.308;2024-02-04T03:58:33;94194.56;;;7.97;64.15
49393;BME280;35268;42.642;23.308;2024-02-04T04:00:59;94201.09;;;8.05;63.91
49393;BME280;35268;42.642;23.308;2024-02-04T04:03:25;94204.88;;;7.99;64.20
49393;BME280;35268;42.642;23.308;2024-02-04T04:05:52;94213.50;;;7.91;65.06
49393;BME280;35268;42.642;23.308;2024-02-04T04:08:18;94218.25;;;7.94;64.92
49393;BME280;35268;42.642;23.308;2024-02-04T04:10:44;94216.66;;;7.93;65.50
49393;BME280;35268;42.642;23.308;2024-02-04T04:13:09;94209.78;;;7.92;65.80
49393;BME280;35268;42.642;23.308;2024-02-04T04:15:35;94200.81;;;7.88;66.30
49393;BME280;35268;42.642;23.308;2024-02-04T04:18:00;94198.06;;;7.93;66.56
49393;BME280;35268;42.642;23.308;2024-02-04T04:20:26;94192.78;;;7.93;66.27
49393;BME280;35268;42.642;23.308;2024-02-04T04:22:51;94188.47;;;7.97;66.21
49393;BME280;35268;42.642;23.308;2024-02-04T04:25:17;94217.66;;;7.97;66.56
49393;BME280;35268;42.642;23.308;2024-02-04T04:27:43;94191.25;;;7.87;66.67
49393;BME280;35268;42.642;23.308;2024-02-04T04:30:09;94197.63;;;7.86;66.77
49393;BME280;35268;42.642;23.308;2024-02-04T04:32:35;94200.59;;;7.84;67.08
49393;BME280;35268;42.642;23.308;2024-02-04T04:35:00;94191.78;;;7.89;68.97
49393;BME280;35268;42.642;23.308;2024-02-04T04:37:26;94216.09;;;7.96;68.47
49393;BME280;35268;42.642;23.308;2024-02-04T04:39:51;94217.59;;;8.02;67.91
49393;BME280;35268;42.642;23.308;2024-02-04T04:42:17;94210.63;;;8.06;68.64
49393;BME280;35268;42.642;23.308;2024-02-04T04:44:42;94235.38;;;8.01;67.99
49393;BME280;35268;42.642;23.308;2024-02-04T04:47:08;94183.66;;;7.99;67.53
49393;BME280;35268;42.642;23.308;2024-02-04T04:49:34;94202.22;;;7.99;67.17
49393;BME280;35268;42.642;23.308;2024-02-04T04:51:59;94209.53;;;8.07;66.75
49393;BME280;35268;42.642;23.308;2024-02-04T04:54:25;94184.94;;;8.01;66.24
49393;BME280;35268;42.642;23.308;2024-02-04T04:56:52;94195.78;;;8.05;66.08
49393;BME280;35268;42.642;23.308;2024-02-04T04:59:17;94212.28;;;8.02;65.50
49393;BME280;35268;42.642;23.308;2024-02-04T05:01:49;94222.91;;;8.02;65.13
49393;BME280;35268;42.642;23.308;2024-02-04T05:04:17;94190.56;;;8.00;64.94
49393;BME280;35268;42.642;23.308;2024-02-04T05:06:44;94204.16;;;7.93;64.83
49393;BME280;35268;42.642;23.308;2024-02-04T05:09:09;94189.13;;;7.89;65.44
49393;BME280;35268;42.642;23.308;2024-02-04T05:11:35;94187.19;;;7.94;65.23
49393;BME280;35268;42.642;23.308;2024-02-04T05:14:00;94191.78;;;7.89;65.18
49393;BME280;35268;42.642;23.308;2024-02-04T05:16:26;94193.91;;;7.87;65.33
49393;BME280;35268;42.642;23.308;2024-02-04T05:18:51;94189.66;;;7.86;65.17
49393;BME280;35268;42.642;23.308;2024-02-04T05:21:17;94187.56;;;7.88;65.00
49393;BME280;35268;42.642;23.308;2024-02-04T05:23:42;94203.66;;;7.91;64.33
49393;BME280;35268;42.642;23.308;2024-02-04T05:26:07;94192.41;;;7.99;64.03
49393;BME280;35268;42.642;23.308;2024-02-04T05:28:33;94194.56;;;7.97;63.97
49393;BME280;35268;42.642;23.308;2024-02-04T05:30:58;94204.03;;;8.03;63.67
49393;BME280;35268;42.642;23.308;2024-02-04T05:33:24;94214.13;;;8.01;63.75
49393;BME280;35268;42.642;23.308;2024-02-04T05:35:49;94202.69;;;8.06;63.48
49393;BME280;35268;42.642;23.308;2024-02-04T05:38:16;94203.69;;;8.10;63.09
49393;BME280;35268;42.642;23.308;2024-02-04T05:40:41;94192.47;;;8.13;63.09
49393;BME280;35268;42.642;23.308;2024-02-04T05:43:07;94201.59;;;8.07;62.74
49393;BME280;35268;42.642;23.308;2024-02-04T05:45:38;94201.81;;;8.11;62.56
49393;BME280;35268;42.642;23.308;2024-02-04T05:48:07;94197.06;;;8.08;62.09
49393;BME280;35268;42.642;23.308;2024-02-04T05:50:32;94210.56;;;8.11;62.54
49393;BME280;35268;42.642;23.308;2024-02-04T05:52:58;94214.50;;;8.14;62.83
49393;BME280;35268;42.642;23.308;2024-02-04T05:55:23;94219.28;;;8.12;63.03
49393;BME280;35268;42.642;23.308;2024-02-04T05:57:48;94214.50;;;8.14;63.21
49393;BME280;35268;42.642;23.308;2024-02-04T06:00:14;94217.13;;;8.14;63.37
49393;BME280;35268;42.642;23.308;2024-02-04T06:02:40;94246.00;;;8.01;63.10
49393;BME280;35268;42.642;23.308;2024-02-04T06:05:08;94231.66;;;8.02;63.28
49393;BME280;35268;42.642;23.308;2024-02-04T06:07:34;94210.13;;;8.04;63.66
49393;BME280;35268;42.642;23.308;2024-02-04T06:09:59;94226.91;;;7.99;63.80
49393;BME280;35268;42.642;23.308;2024-02-04T06:12:26;94239.91;;;8.01;64.20
49393;BME280;35268;42.642;23.308;2024-02-04T06:14:51;94240.81;;;7.91;64.24
49393;BME280;35268;42.642;23.308;2024-02-04T06:17:17;94252.75;;;7.94;63.84
49393;BME280;35268;42.642;23.308;2024-02-04T06:19:42;94240.53;;;7.93;63.99
49393;BME280;35268;42.642;23.308;2024-02-04T06:22:08;94244.84;;;7.89;64.13
49393;BME280;35268;42.642;23.308;2024-02-04T06:24:33;94240.03;;;7.91;64.08
49393;BME280;35268;42.642;23.308;2024-02-04T06:26:58;94260.13;;;7.97;63.98
49393;BME280;35268;42.642;23.308;2024-02-04T06:29:24;94270.88;;;7.87;64.08
49393;BME280;35268;42.642;23.308;2024-02-04T06:31:49;94260.00;;;7.88;64.36
49393;BME280;35268;42.642;23.308;2024-02-04T06:34:15;94264.28;;;7.84;64.21
49393;BME280;35268;42.642;23.308;2024-02-04T06:36:43;94280.13;;;7.89;63.94
49393;BME280;35268;42.642;23.308;2024-02-04T06:39:12;94289.19;;;7.88;64.08
49393;BME280;35268;42.642;23.308;2024-02-04T06:41:37;94277.19;;;7.91;63.73
49393;BME280;35268;42.642;23.308;2024-02-04T06:44:03;94283.25;;;7.96;63.70
49393;BME280;35268;42.642;23.308;2024-02-04T06:46:29;94280.06;;;7.94;63.52
49393;BME280;35268;42.642;23.308;2024-02-04T06:48:55;94270.75;;;7.97;62.29
49393;BME280;35268;42.642;23.308;2024-02-04T06:51:20;94261.78;;;8.12;61.09
49393;BME280;35268;42.642;23.308;2024-02-04T06:53:46;94261.44;;;8.18;61.21
49393;BME280;35268;42.642;23.308;2024-02-04T06:56:12;94250.34;;;8.30;60.47
49393;BME280;35268;42.642;23.308;2024-02-04T06:58:38;94260.81;;;8.40;59.38
49393;BME280;35268;42.642;23.308;2024-02-04T07:01:03;94261.56;;;8.46;58.99
49393;BME280;35268;42.642;23.308;2024-02-04T07:03:29;94279.59;;;8.49;58.36
49393;BME280;35268;42.642;23.308;2024-02-04T07:05:55;94299.34;;;8.43;60.08
49393;BME280;35268;42.642;23.308;2024-02-04T07:08:20;94276.34;;;8.33;60.48
49393;BME280;35268;42.642;23.308;2024-02-04T07:10:46;94289.03;;;8.36;60.08
49393;BME280;35268;42.642;23.308;2024-02-04T07:13:11;94268.59;;;8.37;60.36
49393;BME280;35268;42.642;23.308;2024-02-04T07:15:38;94302.97;;;8.28;61.04
49393;BME280;35268;42.642;23.308;2024-02-04T07:18:04;94272.34;;;8.17;60.86
49393;BME280;35268;42.642;23.308;2024-02-04T07:20:29;94254.69;;;8.07;61.23
49393;BME280;35268;42.642;23.308;2024-02-04T07:22:55;94266.53;;;8.15;61.01
49393;BME280;35268;42.642;23.308;2024-02-04T07:25:20;94289.28;;;8.02;61.62
49393;BME280;35268;42.642;23.308;2024-02-04T07:27:46;94268.03;;;8.02;61.89
49393;BME280;35268;42.642;23.308;2024-02-04T07:30:11;94264.00;;;8.04;61.67
49393;BME280;35268;42.642;23.308;2024-02-04T07:32:37;94254.69;;;8.07;60.92
49393;BME280;35268;42.642;23.308;2024-02-04T07:35:03;94263.88;;;8.15;60.13
49393;BME280;35268;42.642;23.308;2024-02-04T07:37:28;94259.19;;;8.26;59.92
49393;BME280;35268;42.642;23.308;2024-02-04T07:39:54;94262.78;;;8.35;58.99
49393;BME280;35268;42.642;23.308;2024-02-04T07:42:19;94254.47;;;8.41;59.24
49393;BME280;35268;42.642;23.308;2024-02-04T07:44:44;94280.09;;;8.51;58.02
49393;BME280;35268;42.642;23.308;2024-02-04T07:47:10;94269.47;;;8.51;57.49
49393;BME280;35268;42.642;23.308;2024-02-04T07:49:36;94276.34;;;8.52;57.77
49393;BME280;35268;42.642;23.308;2024-02-04T07:52:02;94278.34;;;8.60;57.93
49393;BME280;35268;42.642;23.308;2024-02-04T07:54:28;94284.16;;;8.62;57.22
49393;BME280;35268;42.642;23.308;2024-02-04T07:56:54;94270.31;;;8.66;57.24
49393;BME280;35268;42.642;23.308;2024-02-04T07:59:19;94273.97;;;8.70;56.03
49393;BME280;35268;42.642;23.308;2024-02-04T08:01:45;94287.59;;;8.82;56.37
49393;BME280;35268;42.642;23.308;2024-02-04T08:04:10;94253.03;;;8.82;55.73
49393;BME280;35268;42.642;23.308;2024-02-04T08:06:36;94276.84;;;8.87;53.79
49393;BME280;35268;42.642;23.308;2024-02-04T08:09:05;94273.75;;;8.99;54.17
49393;BME280;35268;42.642;23.308;2024-02-04T08:11:31;94260.06;;;9.06;53.93
49393;BME280;35268;42.642;23.308;2024-02-04T08:13:57;94275.72;;;9.07;52.75
49393;BME280;35268;42.642;23.308;2024-02-04T08:16:22;94287.56;;;9.15;53.66
49393;BME280;35268;42.642;23.308;2024-02-04T08:18:48;94297.09;;;9.16;52.30
49393;BME280;35268;42.642;23.308;2024-02-04T08:21:13;94280.19;;;9.26;53.00
49393;BME280;35268;42.642;23.308;2024-02-04T08:23:38;94260.59;;;9.35;51.77
49393;BME280;35268;42.642;23.308;2024-02-04T08:26:07;94273.22;;;9.43;51.96
49393;BME280;35268;42.642;23.308;2024-02-04T08:28:32;94253.59;;;9.53;52.48
49393;BME280;35268;42.642;23.308;2024-02-04T08:30:58;94251.16;;;9.57;52.10
49393;BME280;35268;42.642;23.308;2024-02-04T08:33:23;94256.75;;;9.69;51.35
49393;BME280;35268;42.642;23.308;2024-02-04T08:35:49;94260.91;;;9.61;51.70
49393;BME280;35268;42.642;23.308;2024-02-04T08:38:14;94256.25;;;9.67;51.51
49393;BME280;35268;42.642;23.308;2024-02-04T08:40:40;94280.22;;;9.67;51.34
49393;BME280;35268;42.642;23.308;2024-02-04T08:43:05;94260.41;;;9.59;52.05
49393;BME280;35268;42.642;23.308;2024-02-04T08:45:31;94244.72;;;9.58;52.80
49393;BME280;35268;42.642;23.308;2024-02-04T08:47:56;94265.53;;;9.56;53.24
49393;BME280;35268;42.642;23.308;2024-02-04T08:50:22;94309.38;;;9.44;54.43
49393;BME280;35268;42.642;23.308;2024-02-04T08:52:47;94326.91;;;9.46;54.00
49393;BME280;35268;42.642;23.308;2024-02-04T08:55:12;94265.13;;;9.35;54.25
49393;BME280;35268;42.642;23.308;2024-02-04T08:57:38;94307.41;;;9.36;54.46
49393;BME280;35268;42.642;23.308;2024-02-04T09:00:05;94249.06;;;9.26;55.77
49393;BME280;35268;42.642;23.308;2024-02-04T09:02:34;94260.56;;;9.21;56.38
49393;BME280;35268;42.642;23.308;2024-02-04T09:05:00;94245.69;;;9.07;56.83
49393;BME280;35268;42.642;23.308;2024-02-04T09:07:25;94262.59;;;8.97;57.43
49393;BME280;35268;42.642;23.308;2024-02-04T09:09:50;94266.53;;;8.99;57.34
49393;BME280;35268;42.642;23.308;2024-02-04T09:12:16;94297.84;;;8.89;57.93
49393;BME280;35268;42.642;23.308;2024-02-04T09:14:42;94281.00;;;8.93;57.99
49393;BME280;35268;42.642;23.308;2024-02-04T09:17:07;94285.53;;;8.93;57.83
49393;BME280;35268;42.642;23.308;2024-02-04T09:19:33;94271.47;;;8.92;58.21
49393;BME280;35268;42.642;23.308;2024-02-04T09:21:59;94307.31;;;8.95;58.31
49393;BME280;35268;42.642;23.308;2024-02-04T09:24:27;94275.63;;;8.98;58.53
49393;BME280;35268;42.642;23.308;2024-02-04T09:26:52;94290.28;;;8.96;58.20
49393;BME280;35268;42.642;23.308;2024-02-04T09:29:18;94305.44;;;8.95;58.57
49393;BME280;35268;42.642;23.308;2024-02-04T09:31:43;94310.47;;;8.97;58.59
49393;BME280;35268;42.642;23.308;2024-02-04T09:34:09;94330.34;;;8.99;58.60
49393;BME280;35268;42.642;23.308;2024-02-04T09:36:34;94341.22;;;9.03;58.48
49393;BME280;35268;42.642;23.308;2024-02-04T09:38:59;94328.00;;;8.98;58.35
49393;BME280;35268;42.642;23.308;2024-02-04T09:41:25;94314.84;;;9.07;58.34
49393;BME280;35268;42.642;23.308;2024-02-04T09:43:52;94326.22;;;9.26;57.95
49393;BME280;35268;42.642;23.308;2024-02-04T09:46:18;94306.00;;;9.25;57.86
49393;BME280;35268;42.642;23.308;2024-02-04T09:48:45;94314.91;;;9.34;57.46
49393;BME280;35268;42.642;23.308;2024-02-04T09:51:11;94309.97;;;9.41;57.63
49393;BME280;35268;42.642;23.308;2024-02-04T09:53:41;94318.06;;;9.36;57.48
49393;BME280;35268;42.642;23.308;2024-02-04T09:56:08;94314.41;;;9.32;57.39
49393;BME280;35268;42.642;23.308;2024-02-04T09:58:34;94322.19;;;9.42;57.64
49393;BME280;35268;42.642;23.308;2024-02-04T10:01:00;94298.13;;;9.48;57.04
49393;BME280;35268;42.642;23.308;2024-02-04T10:03:26;94293.72;;;9.43;57.21
49393;BME280;35268;42.642;23.308;2024-02-04T10:05:51;94308.28;;;9.46;57.18
49393;BME280;35268;42.642;23.308;2024-02-04T10:08:17;94278.94;;;9.51;57.37
49393;BME280;35268;42.642;23.308;2024-02-04T10:10:43;94316.31;;;9.73;56.82
49393;BME280;35268;42.642;23.308;2024-02-04T10:13:09;94289.75;;;9.82;56.36
49393;BME280;35268;42.642;23.308;2024-02-04T10:15:34;94322.97;;;9.84;56.95
49393;BME280;35268;42.642;23.308;2024-02-04T10:18:05;94314.72;;;9.72;56.51
49393;BME280;35268;42.642;23.308;2024-02-04T10:20:31;94306.44;;;9.60;57.23
49393;BME280;35268;42.642;23.308;2024-02-04T10:22:58;94358.47;;;9.66;57.26
49393;BME280;35268;42.642;23.308;2024-02-04T10:25:23;94348.63;;;9.53;58.12
49393;BME280;35268;42.642;23.308;2024-02-04T10:27:49;94337.16;;;9.38;58.84
49393;BME280;35268;42.642;23.308;2024-02-04T10:30:14;94330.47;;;9.41;58.85
49393;BME280;35268;42.642;23.308;2024-02-04T10:32:41;94318.94;;;9.46;59.31
49393;BME280;35268;42.642;23.308;2024-02-04T10:35:07;94333.72;;;9.52;59.84
49393;BME280;35268;42.642;23.308;2024-02-04T10:37:34;94312.16;;;9.53;59.51
49393;BME280;35268;42.642;23.308;2024-02-04T10:39:59;94296.19;;;9.53;59.84
49393;BME280;35268;42.642;23.308;2024-02-04T10:42:26;94303.56;;;9.56;59.56
49393;BME280;35268;42.642;23.308;2024-02-04T10:44:57;94299.34;;;9.55;58.96
49393;BME280;35268;42.642;23.308;2024-02-04T10:47:25;94303.06;;;9.54;59.56
49393;BME280;35268;42.642;23.308;2024-02-04T10:49:52;94341.53;;;9.62;59.67
49393;BME280;35268;42.642;23.308;2024-02-04T10:52:22;94313.63;;;9.59;59.57
49393;BME280;35268;42.642;23.308;2024-02-04T10:54:49;94327.72;;;9.60;59.71
49393;BME280;35268;42.642;23.308;2024-02-04T10:57:20;94309.69;;;9.43;59.49
49393;BME280;35268;42.642;23.308;2024-02-04T10:59:47;94303.66;;;9.37;60.11
49393;BME280;35268;42.642;23.308;2024-02-04T11:02:15;94296.56;;;9.33;60.06
49393;BME280;35268;42.642;23.308;2024-02-04T11:04:41;94300.69;;;9.25;60.70
49393;BME280;35268;42.642;23.308;2024-02-04T11:07:08;94324.13;;;9.23;60.62
49393;BME280;35268;42.642;23.308;2024-02-04T11:09:37;94289.84;;;9.21;60.41
49393;BME280;35268;42.642;23.308;2024-02-04T11:12:08;94326.22;;;9.26;60.70
49393;BME280;35268;42.642;23.308;2024-02-04T11:14:55;94301.19;;;9.27;60.11
49393;BME280;35268;42.642;23.308;2024-02-04T11:17:38;94292.03;;;9.33;60.33
49393;BME280;35268;42.642;23.308;2024-02-04T11:22:44;94281.00;;;9.54;59.64
49393;BME280;35268;42.642;23.308;2024-02-04T11:28:12;94268.75;;;9.67;58.90
49393;BME280;35268;42.642;23.308;2024-02-04T11:30:38;94267.50;;;9.64;58.92
49393;BME280;35268;42.642;23.308;2024-02-04T11:33:04;94274.41;;;9.65;59.46
49393;BME280;35268;42.642;23.308;2024-02-04T11:35:31;94254.38;;;9.68;59.14
49393;BME280;35268;42.642;23.308;2024-02-04T11:37:57;94271.75;;;9.65;58.87
49393;BME280;35268;42.642;23.308;2024-02-04T11:40:22;94278.81;;;9.56;59.09
49393;BME280;35268;42.642;23.308;2024-02-04T11:42:50;94271.25;;;9.63;58.80
49393;BME280;35268;42.642;23.308;2024-02-04T11:45:16;94261.69;;;9.62;59.07
49393;BME280;35268;42.642;23.308;2024-02-04T11:47:42;94274.78;;;9.72;58.83
49393;BME280;35268;42.642;23.308;2024-02-04T11:50:08;94254.97;;;9.78;58.28
49393;BME280;35268;42.642;23.308;2024-02-04T11:52:34;94257.63;;;9.78;58.83
49393;BME280;35268;42.642;23.308;2024-02-04T11:55:00;94225.78;;;9.87;58.47
49393;BME280;35268;42.642;23.308;2024-02-04T11:57:26;94218.09;;;9.86;58.21
49393;BME280;35268;42.642;23.308;2024-02-04T11:59:53;94199.72;;;9.98;58.27
49393;BME280;35268;42.642;23.308;2024-02-04T12:02:23;94221.00;;;9.98;57.39
49393;BME280;35268;42.642;23.308;2024-02-04T12:04:48;94209.75;;;10.01;57.66
49393;BME280;35268;42.642;23.308;2024-02-04T12:07:14;94203.47;;;9.83;57.95
49393;BME280;35268;42.642;23.308;2024-02-04T12:09:41;94227.16;;;9.84;57.88
49393;BME280;35268;42.642;23.308;2024-02-04T12:12:07;94201.13;;;9.81;57.53
49393;BME280;35268;42.642;23.308;2024-02-04T12:14:34;94226.84;;;9.86;57.18
49393;BME280;35268;42.642;23.308;2024-02-04T12:17:09;94210.78;;;9.91;57.40
49393;BME280;35268;42.642;23.308;2024-02-04T12:19:36;94203.28;;;9.93;57.30
49393;BME280;35268;42.642;23.308;2024-02-04T12:22:02;94206.00;;;10.02;57.08
49393;BME280;35268;42.642;23.308;2024-02-04T12:24:33;94208.19;;;10.00;56.46
49393;BME280;35268;42.642;23.308;2024-02-04T12:26:59;94231.84;;;10.01;56.60
49393;BME280;35268;42.642;23.308;2024-02-04T12:29:25;94212.50;;;10.10;56.58
49393;BME280;35268;42.642;23.308;2024-02-04T12:32:06;94212.09;;;10.16;56.11
49393;BME280;35268;42.642;23.308;2024-02-04T12:34:32;94209.13;;;10.18;55.90
49393;BME280;35268;42.642;23.308;2024-02-04T12:37:01;94207.72;;;10.20;55.77
49393;BME280;35268;42.642;23.308;2024-02-04T12:39:28;94208.69;;;10.24;55.40
49393;BME280;35268;42.642;23.308;2024-02-04T12:41:53;94223.72;;;10.20;54.99
49393;BME280;35268;42.642;23.308;2024-02-04T12:44:19;94222.06;;;10.11;55.08
49393;BME280;35268;42.642;23.308;2024-02-04T12:46:45;94219.59;;;10.14;55.14
49393;BME280;35268;42.642;23.308;2024-02-04T12:49:19;94223.88;;;10.01;55.49
49393;BME280;35268;42.642;23.308;2024-02-04T12:51:46;94213.59;;;9.95;55.68
49393;BME280;35268;42.642;23.308;2024-02-04T12:54:12;94210.47;;;9.93;55.61
49393;BME280;35268;42.642;23.308;2024-02-04T12:56:53;94211.13;;;9.98;55.41
49393;BME280;35268;42.642;23.308;2024-02-04T13:01:56;94209.59;;;9.97;54.60
49393;BME280;35268;42.642;23.308;2024-02-04T13:04:22;94207.56;;;10.03;55.19
49393;BME280;35268;42.642;23.308;2024-02-04T13:06:48;94209.75;;;10.01;54.46
49393;BME280;35268;42.642;23.308;2024-02-04T13:09:15;94211.53;;;10.06;54.41